createdAt,value
2019-06-10T00:01:52.702Z,8.40
2019-06-10T00:04:22.538Z,6.77
2019-06-10T00:06:52.752Z,6.00
2019-06-10T00:09:22.269Z,7.57
2019-06-10T00:11:51.733Z,6.30
2019-06-10T00:14:21.868Z,5.97
2019-06-10T00:16:51.574Z,5.50
2019-06-10T00:19:21.890Z,7.23
2019-06-10T00:21:51.450Z,5.70
2019-06-10T00:24:21.289Z,5.20
2019-06-10T00:26:51.346Z,6.03
2019-06-10T00:29:22.307Z,7.17
2019-06-10T00:31:52.631Z,7.70
2019-06-10T00:34:22.598Z,5.60
2019-06-10T00:36:53.075Z,5.77
2019-06-10T00:39:23.687Z,7.20
2019-06-10T00:41:53.544Z,5.40
2019-06-10T00:44:23.398Z,7.13
2019-06-10T00:46:53.538Z,6.03
2019-06-10T00:49:23.314Z,5.80
2019-06-10T00:51:53.020Z,5.20
2019-06-10T00:54:22.874Z,5.00
2019-06-10T00:56:53.193Z,5.07
2019-06-10T00:59:23.452Z,5.00
2019-06-10T01:01:55.842Z,4.70
2019-06-10T01:04:25.448Z,5.23
2019-06-10T01:06:55.527Z,5.43
2019-06-10T01:09:26.451Z,5.43
2019-06-10T01:11:56.520Z,7.60
2019-06-10T01:14:26.361Z,8.73
2019-06-10T01:16:56.187Z,5.43
2019-06-10T01:19:28.046Z,5.80
2019-06-10T01:21:58.013Z,6.90
2019-06-10T01:24:27.431Z,6.60
2019-06-10T01:26:57.690Z,6.80
2019-06-10T01:29:27.942Z,5.90
2019-06-10T01:31:58.257Z,5.87
2019-06-10T01:34:27.797Z,5.60
2019-06-10T01:36:58.723Z,7.97
2019-06-10T01:39:31.054Z,5.70
2019-06-10T01:42:01.802Z,5.10
2019-06-10T01:44:31.634Z,5.80
2019-06-10T01:47:01.548Z,4.27
2019-06-10T01:49:31.679Z,4.80
2019-06-10T01:52:01.979Z,7.00
2019-06-10T01:54:32.158Z,5.90
2019-06-10T01:57:01.677Z,4.80
2019-06-10T01:59:31.539Z,5.40
2019-06-10T02:02:09.789Z,8.83
2019-06-10T02:04:41.157Z,4.93
2019-06-10T02:07:13.845Z,6.30
2019-06-10T02:09:43.386Z,5.30
2019-06-10T02:12:16.333Z,5.93
2019-06-10T02:14:45.957Z,6.07
2019-06-10T02:17:16.393Z,6.20
2019-06-10T02:19:47.417Z,6.90
2019-06-10T02:22:20.298Z,4.50
2019-06-10T02:24:50.638Z,4.40
2019-06-10T02:27:21.925Z,7.80
2019-06-10T02:29:52.745Z,4.90
2019-06-10T02:32:31.371Z,4.90
2019-06-10T02:35:07.897Z,6.63
2019-06-10T02:37:32.179Z,5.60
2019-06-10T02:39:57.936Z,5.03
2019-06-10T02:42:36.308Z,5.80
2019-06-10T02:45:08.163Z,4.90
2019-06-10T02:47:38.450Z,5.03
2019-06-10T02:50:09.941Z,5.57
2019-06-10T02:52:39.957Z,5.07
2019-06-10T02:55:13.986Z,4.87
2019-06-10T02:57:44.994Z,4.63
2019-06-10T03:00:20.748Z,7.77
2019-06-10T03:02:45.490Z,4.73
2019-06-10T03:05:17.590Z,6.23
2019-06-10T03:07:47.533Z,5.73
2019-06-10T03:10:19.524Z,5.73
2019-06-10T03:12:48.947Z,5.70
2019-06-10T03:15:19.947Z,5.83
2019-06-10T03:17:52.157Z,4.60
2019-06-10T03:20:24.080Z,6.13
2019-06-10T03:22:52.644Z,5.37
2019-06-10T03:25:24.553Z,5.03
2019-06-10T03:27:54.688Z,6.77
2019-06-10T03:30:39.387Z,5.00
2019-06-10T03:32:56.562Z,6.23
2019-06-10T03:35:28.356Z,4.77
2019-06-10T03:37:58.675Z,4.97
2019-06-10T03:40:28.868Z,5.33
2019-06-10T03:43:02.613Z,4.83
2019-06-10T03:45:32.511Z,5.03
2019-06-10T03:48:03.745Z,6.17
2019-06-10T03:50:34.235Z,4.13
2019-06-10T03:53:04.460Z,6.00
2019-06-10T03:55:34.409Z,4.70
2019-06-10T03:58:04.177Z,8.57
2019-06-10T04:00:36.900Z,4.50
2019-06-10T04:03:06.689Z,4.20
2019-06-10T04:05:36.472Z,5.00
2019-06-10T04:08:05.975Z,4.90
2019-06-10T04:10:36.456Z,5.20
2019-06-10T04:13:05.953Z,5.10
2019-06-10T04:15:35.391Z,6.13
2019-06-10T04:18:05.319Z,5.37
2019-06-10T04:20:35.510Z,4.67
2019-06-10T04:23:05.852Z,4.57
2019-06-10T04:25:38.624Z,4.70
2019-06-10T04:28:08.824Z,5.50
2019-06-10T04:30:39.176Z,5.17
2019-06-10T04:33:08.656Z,5.00
2019-06-10T04:35:42.770Z,5.00
2019-06-10T04:38:13.140Z,5.33
2019-06-10T04:40:44.238Z,5.60
2019-06-10T04:43:14.967Z,7.57
2019-06-10T04:45:44.681Z,4.37
2019-06-10T04:48:15.076Z,4.67
2019-06-10T04:50:46.432Z,8.13
2019-06-10T04:53:16.033Z,7.17
2019-06-10T04:55:46.451Z,8.70
2019-06-10T04:58:16.530Z,6.93
2019-06-10T05:00:46.781Z,4.13
2019-06-10T05:03:16.605Z,4.77
2019-06-10T05:05:47.124Z,4.70
2019-06-10T05:08:17.530Z,4.50
2019-06-10T05:10:47.194Z,5.87
2019-06-10T05:13:17.429Z,4.00
2019-06-10T05:15:47.684Z,5.27
2019-06-10T05:18:17.423Z,3.93
2019-06-10T05:20:57.682Z,3.97
2019-06-10T05:23:19.625Z,4.30
2019-06-10T05:25:52.633Z,4.97
2019-06-10T05:28:23.898Z,9.00
2019-06-10T05:30:53.762Z,4.13
2019-06-10T05:33:25.734Z,8.53
2019-06-10T05:35:55.643Z,7.83
2019-06-10T05:38:27.216Z,5.27
2019-06-10T05:40:57.780Z,6.50
2019-06-10T05:43:28.101Z,9.10
2019-06-10T05:45:59.420Z,3.80
2019-06-10T05:48:28.942Z,4.60
2019-06-10T05:51:02.850Z,5.17
2019-06-10T05:53:31.505Z,4.27
2019-06-10T05:56:02.386Z,7.13
2019-06-10T05:58:34.518Z,4.70
2019-06-10T06:01:04.519Z,6.70
2019-06-10T06:03:36.917Z,10.13
2019-06-10T06:06:06.681Z,5.17
2019-06-10T06:08:37.559Z,10.60
2019-06-10T06:11:07.385Z,8.20
2019-06-10T06:13:38.084Z,6.17
2019-06-10T06:16:12.354Z,6.30
2019-06-10T06:18:42.194Z,6.67
2019-06-10T06:21:25.552Z,9.67
2019-06-10T06:23:43.886Z,4.90
2019-06-10T06:26:16.449Z,4.93
2019-06-10T06:28:46.354Z,7.93
2019-06-10T06:31:16.254Z,4.20
2019-06-10T06:33:46.203Z,5.60
2019-06-10T06:36:16.106Z,9.73
2019-06-10T06:38:47.961Z,6.53
2019-06-10T06:41:18.419Z,9.33
2019-06-10T06:43:48.879Z,5.67
2019-06-10T06:46:18.972Z,8.60
2019-06-10T06:48:49.472Z,8.47
2019-06-10T06:51:33.592Z,8.30
2019-06-10T06:53:54.423Z,6.40
2019-06-10T06:56:23.166Z,7.27
2019-06-10T06:58:53.541Z,5.33
2019-06-10T07:01:26.022Z,7.00
2019-06-10T07:03:56.134Z,6.73
2019-06-10T07:06:27.083Z,8.53
2019-06-10T07:09:04.669Z,4.10
2019-06-10T07:11:35.440Z,11.40
2019-06-10T07:14:09.881Z,5.93
2019-06-10T07:16:39.667Z,4.87
2019-06-10T07:19:13.084Z,7.53
2019-06-10T07:22:02.596Z,5.50
2019-06-10T07:24:17.034Z,9.33
2019-06-10T07:26:53.990Z,4.47
2019-06-10T07:29:22.589Z,3.93
2019-06-10T07:31:53.470Z,5.40
2019-06-10T07:34:23.242Z,5.40
2019-06-10T07:36:53.117Z,7.10
2019-06-10T07:39:23.803Z,7.03
2019-06-10T07:41:53.991Z,7.40
2019-06-10T07:44:23.849Z,6.40
2019-06-10T07:46:54.045Z,8.90
2019-06-10T07:49:24.062Z,6.17
2019-06-10T07:51:53.773Z,3.80
2019-06-10T07:54:25.299Z,4.00
2019-06-10T07:56:55.490Z,4.30
2019-06-10T07:59:25.866Z,8.70
2019-06-10T08:01:55.812Z,3.73
2019-06-10T08:04:26.711Z,4.57
2019-06-10T08:06:57.354Z,4.57
2019-06-10T08:09:27.257Z,4.67
2019-06-10T08:11:57.572Z,5.57
2019-06-10T08:14:27.442Z,6.17
2019-06-10T08:16:57.621Z,4.67
2019-06-10T08:19:34.667Z,4.50
2019-06-10T08:21:59.425Z,5.23
2019-06-10T08:24:29.863Z,6.10
2019-06-10T08:26:59.376Z,4.10
2019-06-10T08:29:29.348Z,4.93
2019-06-10T08:32:03.058Z,5.33
2019-06-10T08:34:32.984Z,4.87
2019-06-10T08:37:04.245Z,5.73
2019-06-10T08:39:34.607Z,6.50
2019-06-10T08:42:05.053Z,6.93
2019-06-10T08:44:34.413Z,5.10
2019-06-10T08:47:04.272Z,4.90
2019-06-10T08:49:34.377Z,6.60
2019-06-10T08:52:04.245Z,4.60
2019-06-10T08:54:34.639Z,4.50
2019-06-10T08:57:04.746Z,5.20
2019-06-10T08:59:34.984Z,4.83
2019-06-10T09:02:04.923Z,5.93
2019-06-10T09:04:35.584Z,5.80
2019-06-10T09:07:05.589Z,7.40
2019-06-10T09:09:35.541Z,11.33
2019-06-10T09:12:06.281Z,6.10
2019-06-10T09:14:35.956Z,6.53
2019-06-10T09:17:06.169Z,8.17
2019-06-10T09:19:36.804Z,7.40
2019-06-10T09:22:06.653Z,9.30
2019-06-10T09:24:36.948Z,8.50
2019-06-10T09:27:06.855Z,8.47
2019-06-10T09:29:37.755Z,8.87
2019-06-10T09:32:07.842Z,7.77
2019-06-10T09:34:37.776Z,8.83
2019-06-10T09:37:07.649Z,7.80
2019-06-10T09:39:38.280Z,8.70
2019-06-10T09:42:14.345Z,8.53
2019-06-10T09:44:46.841Z,9.17
2019-06-10T09:47:16.335Z,9.67
2019-06-10T09:49:49.182Z,10.20
2019-06-10T09:52:17.946Z,10.40
2019-06-10T09:54:51.679Z,10.77
2019-06-10T09:57:19.050Z,11.60
2019-06-10T09:59:54.048Z,10.30
2019-06-10T10:02:22.328Z,11.03
2019-06-10T10:04:57.771Z,9.47
2019-06-10T10:07:22.892Z,11.90
2019-06-10T10:09:57.171Z,10.67
2019-06-10T10:12:26.050Z,11.20
2019-06-10T10:14:56.632Z,11.60
2019-06-10T10:17:26.089Z,10.80
2019-06-10T10:19:57.115Z,12.50
2019-06-10T10:22:28.078Z,12.43
2019-06-10T10:24:57.960Z,13.10
2019-06-10T10:27:28.555Z,12.97
2019-06-10T10:29:59.026Z,12.50
2019-06-10T10:32:33.265Z,12.30
2019-06-10T10:35:03.076Z,12.03
2019-06-10T10:37:34.759Z,12.43
2019-06-10T10:40:05.468Z,12.40
2019-06-10T10:42:45.523Z,11.67
2019-06-10T10:45:08.481Z,13.03
2019-06-10T10:47:38.916Z,12.30
2019-06-10T10:50:08.608Z,13.10
2019-06-10T10:52:38.586Z,14.03
2019-06-10T10:55:12.964Z,12.80
2019-06-10T10:57:43.199Z,13.53
2019-06-10T11:00:14.712Z,14.30
2019-06-10T11:02:47.122Z,14.00
2019-06-10T11:05:36.350Z,13.60
2019-06-10T11:08:06.822Z,12.17
2019-06-10T11:10:37.106Z,14.37
2019-06-10T11:13:09.559Z,14.13
2019-06-10T11:15:40.513Z,14.50
2019-06-10T11:18:12.958Z,15.10
2019-06-10T11:20:42.594Z,14.70
2019-06-10T11:23:14.395Z,13.90
2019-06-10T11:25:43.922Z,15.17
2019-06-10T11:28:14.271Z,14.87
2019-06-10T11:30:45.255Z,15.43
2019-06-10T11:33:16.040Z,15.20
2019-06-10T11:35:46.713Z,15.07
2019-06-10T11:38:16.506Z,14.97
2019-06-10T11:40:47.205Z,13.77
2019-06-10T11:43:16.801Z,15.20
2019-06-10T11:45:52.352Z,14.70
2019-06-10T11:48:19.915Z,13.70
2019-06-10T11:50:53.930Z,14.17
2019-06-10T11:53:23.007Z,13.93
2019-06-10T11:55:53.783Z,15.53
2019-06-10T11:58:23.325Z,14.53
2019-06-10T12:00:56.796Z,15.67
2019-06-10T12:03:24.978Z,15.40
2019-06-10T12:05:57.785Z,15.20
2019-06-10T12:08:26.590Z,14.00
2019-06-10T12:11:00.277Z,13.40
2019-06-10T12:13:28.480Z,14.77
2019-06-10T12:18:29.982Z,15.90
2019-06-10T12:21:03.534Z,16.00
2019-06-10T12:23:33.720Z,16.23
2019-06-10T12:26:05.224Z,16.40
2019-06-10T12:28:35.839Z,16.53
2019-06-10T12:31:07.177Z,17.80
2019-06-10T12:33:37.944Z,14.73
2019-06-10T12:36:07.870Z,13.90
2019-06-10T12:38:37.891Z,15.07
2019-06-10T12:41:11.091Z,14.27
2019-06-10T12:43:43.357Z,15.93
2019-06-10T12:46:14.709Z,15.83
2019-06-10T12:48:45.326Z,13.70
2019-06-10T12:51:15.614Z,13.60
2019-06-10T12:53:46.078Z,14.60
2019-06-10T12:56:15.620Z,14.33
2019-06-10T12:58:46.256Z,15.37
2019-06-10T13:01:16.374Z,14.53
2019-06-10T13:03:48.339Z,14.47
2019-06-10T13:06:19.519Z,14.70
2019-06-10T13:08:49.351Z,13.80
2019-06-10T13:11:19.234Z,14.63
2019-06-10T13:13:52.863Z,15.03
2019-06-10T13:16:21.998Z,14.80
2019-06-10T13:18:52.618Z,15.60
2019-06-10T13:21:26.079Z,15.20
2019-06-10T13:23:57.469Z,16.60
2019-06-10T13:26:28.438Z,15.83
2019-06-10T13:28:58.987Z,15.33
2019-06-10T13:31:32.878Z,13.97
2019-06-10T13:34:08.780Z,15.77
2019-06-10T13:36:35.266Z,15.93
2019-06-10T13:39:10.335Z,14.53
2019-06-10T13:41:43.850Z,16.10
2019-06-10T13:44:16.594Z,14.97
2019-06-10T13:46:46.274Z,16.27
2019-06-10T13:49:17.897Z,15.47
2019-06-10T13:51:48.090Z,15.70
2019-06-10T13:54:18.719Z,15.17
2019-06-10T13:56:49.498Z,14.80
2019-06-10T13:59:24.996Z,15.00
2019-06-10T14:01:55.035Z,14.33
2019-06-10T14:04:26.528Z,15.20
2019-06-10T14:06:57.160Z,14.63
2019-06-10T14:09:29.647Z,15.60
2019-06-10T14:12:02.093Z,14.00
2019-06-10T14:14:33.293Z,14.77
2019-06-10T14:17:03.956Z,15.00
2019-06-10T14:19:34.892Z,15.83
2019-06-10T14:22:07.941Z,15.70
2019-06-10T14:24:38.858Z,15.73
2019-06-10T14:27:10.505Z,15.87
2019-06-10T14:29:42.022Z,14.57
2019-06-10T14:32:14.366Z,13.73
2019-06-10T14:34:44.609Z,14.33
2019-06-10T14:37:15.690Z,15.70
2019-06-10T14:39:46.272Z,14.80
2019-06-10T14:42:16.407Z,14.30
2019-06-10T14:44:46.676Z,14.83
2019-06-10T14:47:16.901Z,15.70
2019-06-10T14:49:47.638Z,15.03
2019-06-10T14:52:18.985Z,14.37
2019-06-10T14:54:53.222Z,15.90
2019-06-10T14:57:23.219Z,14.90
2019-06-10T14:59:55.536Z,15.00
2019-06-10T15:02:25.722Z,13.13
2019-06-10T15:04:56.272Z,13.50
2019-06-10T15:07:26.362Z,14.67
2019-06-10T15:09:56.986Z,14.63
2019-06-10T15:12:26.677Z,14.67
2019-06-10T15:14:56.910Z,14.37
2019-06-10T15:17:27.610Z,14.00
2019-06-10T15:19:57.474Z,13.13
2019-06-10T15:22:28.500Z,15.10
2019-06-10T15:24:58.628Z,14.40
2019-06-10T15:27:31.618Z,14.60
2019-06-10T15:30:04.419Z,13.30
2019-06-10T15:32:34.913Z,13.37
2019-06-10T15:35:06.418Z,14.53
2019-06-10T15:37:36.634Z,14.63
2019-06-10T15:40:09.046Z,13.90
2019-06-10T15:42:39.391Z,13.63
2019-06-10T15:45:13.291Z,13.77
2019-06-10T15:47:42.801Z,13.03
2019-06-10T15:50:14.125Z,14.30
2019-06-10T15:52:44.785Z,13.63
2019-06-10T15:55:47.758Z,12.07
2019-06-10T15:57:47.702Z,13.90
2019-06-10T16:00:22.322Z,14.23
2019-06-10T16:02:49.550Z,14.10
2019-06-10T16:05:21.221Z,14.17
2019-06-10T16:07:53.013Z,14.00
2019-06-10T16:10:27.612Z,15.10
2019-06-10T16:12:54.795Z,14.07
2019-06-10T16:15:26.624Z,13.57
2019-06-10T16:17:57.518Z,13.70
2019-06-10T16:20:27.681Z,13.40
2019-06-10T16:22:58.058Z,13.90
2019-06-10T16:25:28.654Z,13.73
2019-06-10T16:28:02.849Z,15.07
2019-06-10T16:30:33.638Z,13.87
2019-06-10T16:33:04.210Z,14.57
2019-06-10T16:35:34.167Z,14.33
2019-06-10T16:38:04.048Z,14.17
2019-06-10T16:40:34.540Z,15.00
2019-06-10T16:43:04.166Z,14.27
2019-06-10T16:45:34.148Z,13.70
2019-06-10T16:48:04.021Z,13.83
2019-06-10T16:50:34.355Z,13.97
2019-06-10T16:53:04.568Z,15.37
2019-06-10T16:55:35.327Z,13.63
2019-06-10T16:58:08.280Z,13.93
2019-06-10T17:00:38.367Z,13.33
2019-06-10T17:03:08.098Z,13.10
2019-06-10T17:05:42.606Z,14.07
2019-06-10T17:08:12.787Z,14.67
2019-06-10T17:10:43.717Z,13.23
2019-06-10T17:13:16.161Z,13.97
2019-06-10T17:15:46.165Z,13.97
2019-06-10T17:18:18.495Z,16.40
2019-06-10T17:20:49.166Z,14.27
2019-06-10T17:23:26.875Z,14.87
2019-06-10T17:25:57.701Z,15.13
2019-06-10T17:28:31.685Z,14.33
2019-06-10T17:30:59.687Z,13.83
2019-06-10T17:33:30.441Z,15.03
2019-06-10T17:36:03.425Z,13.40
2019-06-10T17:38:32.507Z,14.83
2019-06-10T17:41:03.504Z,13.90
2019-06-10T17:43:34.622Z,14.27
2019-06-10T17:46:04.753Z,14.00
2019-06-10T17:48:34.595Z,14.20
2019-06-10T17:51:04.532Z,14.33
2019-06-10T17:53:35.068Z,13.73
2019-06-10T17:56:06.728Z,14.10
2019-06-10T17:58:50.071Z,13.93
2019-06-10T18:01:12.270Z,15.40
2019-06-10T18:03:43.044Z,15.90
2019-06-10T18:06:13.435Z,15.17
2019-06-10T18:08:43.535Z,13.93
2019-06-10T18:11:13.858Z,14.10
2019-06-10T18:13:43.967Z,14.67
2019-06-10T18:16:13.862Z,14.87
2019-06-10T18:18:44.176Z,14.97
2019-06-10T18:21:16.359Z,16.07
2019-06-10T18:23:46.645Z,14.50
2019-06-10T18:26:16.527Z,14.10
2019-06-10T18:29:00.834Z,14.80
2019-06-10T18:31:18.733Z,15.20
2019-06-10T18:33:49.006Z,14.43
2019-06-10T18:36:18.802Z,14.50
2019-06-10T18:38:49.047Z,14.20
2019-06-10T18:41:19.164Z,15.97
2019-06-10T18:43:49.412Z,15.43
2019-06-10T18:46:19.828Z,15.30
2019-06-10T18:48:49.886Z,16.03
2019-06-10T18:51:19.695Z,15.90
2019-06-10T18:53:49.882Z,15.13
2019-06-10T18:56:19.498Z,15.77
2019-06-10T18:58:50.079Z,15.60
2019-06-10T19:01:22.517Z,15.40
2019-06-10T19:03:52.105Z,14.63
2019-06-10T19:06:22.909Z,16.33
2019-06-10T19:08:53.272Z,15.27
2019-06-10T19:11:24.296Z,15.53
2019-06-10T19:13:54.617Z,15.53
2019-06-10T19:16:25.625Z,14.60
2019-06-10T19:18:56.473Z,16.43
2019-06-10T19:21:27.206Z,16.47
2019-06-10T19:23:56.895Z,15.60
2019-06-10T19:26:28.034Z,15.73
2019-06-10T19:28:57.923Z,16.63
2019-06-10T19:31:28.047Z,17.00
2019-06-10T19:33:58.275Z,15.27
2019-06-10T19:36:28.306Z,15.67
2019-06-10T19:38:59.349Z,17.33
2019-06-10T19:41:37.577Z,15.67
2019-06-10T19:44:05.871Z,15.93
2019-06-10T19:46:37.740Z,16.83
2019-06-10T19:49:08.261Z,17.00
2019-06-10T19:51:38.886Z,16.73
2019-06-10T19:54:12.388Z,17.47
2019-06-10T19:56:41.878Z,18.07
2019-06-10T19:59:12.685Z,16.93
2019-06-10T20:01:46.695Z,17.83
2019-06-10T20:04:18.014Z,16.43
2019-06-10T20:06:50.332Z,16.23
2019-06-10T20:09:18.424Z,17.10
2019-06-10T20:11:48.050Z,17.93
2019-06-10T20:14:17.764Z,17.20
2019-06-10T20:16:48.115Z,17.20
2019-06-10T20:19:18.376Z,17.40
2019-06-10T20:21:48.952Z,17.80
2019-06-10T20:24:18.982Z,17.30
2019-06-10T20:26:49.580Z,16.67
2019-06-10T20:29:22.028Z,17.87
2019-06-10T20:31:52.423Z,16.67
2019-06-10T20:34:24.416Z,17.33
2019-06-10T20:36:54.747Z,17.87
2019-06-10T20:39:25.038Z,17.83
2019-06-10T20:41:55.889Z,18.67
2019-06-10T20:44:26.034Z,18.23
2019-06-10T20:46:55.510Z,17.53
2019-06-10T20:49:27.417Z,17.20
2019-06-10T20:52:10.451Z,17.77
2019-06-10T20:54:32.287Z,17.83
2019-06-10T20:57:04.220Z,18.03
2019-06-10T20:59:33.761Z,19.03
2019-06-10T21:02:03.426Z,18.13
2019-06-10T21:04:33.268Z,18.77
2019-06-10T21:07:04.399Z,18.60
2019-06-10T21:09:35.348Z,17.80
2019-06-10T21:12:05.390Z,18.77
2019-06-10T21:14:35.378Z,19.37
2019-06-10T21:17:05.187Z,19.03
2019-06-10T21:19:35.652Z,18.50
2019-06-10T21:22:05.174Z,18.20
2019-06-10T21:24:35.585Z,19.30
2019-06-10T21:27:05.312Z,18.87
2019-06-10T21:29:35.923Z,19.30
2019-06-10T21:32:05.435Z,19.53
2019-06-10T21:34:35.695Z,21.17
2019-06-10T21:37:07.794Z,20.87
2019-06-10T21:39:37.752Z,19.80
2019-06-10T21:42:07.425Z,20.90
2019-06-10T21:44:37.225Z,19.63
2019-06-10T21:47:07.477Z,22.80
2019-06-10T21:49:37.678Z,21.60
2019-06-10T21:52:09.088Z,21.40
2019-06-10T21:54:38.798Z,19.47
2019-06-10T21:57:09.534Z,22.20
2019-06-10T21:59:39.814Z,22.07
2019-06-10T22:02:09.625Z,19.93
2019-06-10T22:04:39.366Z,20.77
2019-06-10T22:07:09.043Z,21.50
2019-06-10T22:09:39.710Z,19.40
2019-06-10T22:12:12.000Z,20.33
2019-06-10T22:14:42.309Z,22.80
2019-06-10T22:17:12.279Z,20.80
2019-06-10T22:19:42.819Z,19.63
2019-06-10T22:22:13.151Z,20.43
2019-06-10T22:24:42.745Z,19.13
2019-06-10T22:27:14.001Z,19.07
2019-06-10T22:29:45.047Z,20.93
2019-06-10T22:32:16.038Z,20.77
2019-06-10T22:34:45.651Z,20.87
2019-06-10T22:37:15.253Z,19.60
2019-06-10T22:39:45.709Z,19.70
2019-06-10T22:42:15.573Z,19.90
2019-06-10T22:44:47.375Z,21.67
2019-06-10T22:47:17.355Z,20.60
2019-06-10T22:49:47.889Z,21.23
2019-06-10T22:52:18.579Z,21.50
2019-06-10T22:54:49.671Z,21.20
2019-06-10T22:57:22.166Z,20.47
2019-06-10T22:59:53.614Z,21.83
2019-06-10T23:02:23.945Z,20.13
2019-06-10T23:04:57.319Z,21.87
2019-06-10T23:07:26.850Z,20.97
2019-06-10T23:09:57.848Z,20.70
2019-06-10T23:12:29.521Z,21.60
2019-06-10T23:14:59.403Z,21.57
2019-06-10T23:17:29.685Z,22.73
2019-06-10T23:19:59.800Z,21.17
2019-06-10T23:22:30.652Z,21.97
2019-06-10T23:25:02.803Z,22.57
2019-06-10T23:27:32.917Z,22.33
2019-06-10T23:30:11.231Z,22.73
2019-06-10T23:32:35.208Z,22.00
2019-06-10T23:35:05.617Z,23.07
2019-06-10T23:37:35.635Z,22.13
2019-06-10T23:40:05.810Z,21.00
2019-06-10T23:42:36.143Z,22.50
2019-06-10T23:45:07.066Z,21.67
2019-06-10T23:47:37.077Z,21.80
2019-06-10T23:50:06.821Z,23.13
2019-06-10T23:52:36.783Z,21.97
2019-06-10T23:55:07.780Z,21.60
2019-06-10T23:57:37.729Z,22.77
